createdAt,value
2018-08-20T00:00:53.962Z,94.05
2018-08-20T00:03:22.632Z,94.12
2018-08-20T00:05:56.029Z,94.55
2018-08-20T00:08:25.478Z,93.95
2018-08-20T00:10:58.178Z,94.07
2018-08-20T00:13:27.410Z,94.01
2018-08-20T00:15:56.620Z,94.10
2018-08-20T00:18:30.408Z,94.77
2018-08-20T00:20:58.934Z,94.50
2018-08-20T00:23:27.512Z,94.56
2018-08-20T00:25:58.271Z,94.36
2018-08-20T00:28:27.657Z,94.64
2018-08-20T00:30:56.245Z,94.21
2018-08-20T00:33:24.877Z,94.42
2018-08-20T00:35:53.482Z,94.38
2018-08-20T00:38:22.035Z,94.47
2018-08-20T00:40:50.562Z,94.46
2018-08-20T00:43:19.142Z,94.28
2018-08-20T00:45:47.741Z,94.83
2018-08-20T00:48:16.406Z,94.43
2018-08-20T00:50:45.056Z,94.45
2018-08-20T00:53:13.558Z,95.01
2018-08-20T00:55:42.170Z,94.89
2018-08-20T00:58:10.764Z,93.96
2018-08-20T01:00:39.389Z,94.22
2018-08-20T01:03:08.127Z,94.68
2018-08-20T01:05:36.759Z,94.30
2018-08-20T01:08:05.487Z,94.87
2018-08-20T01:10:33.995Z,94.26
2018-08-20T01:13:02.596Z,93.83
2018-08-20T01:15:31.194Z,94.51
2018-08-20T01:17:59.880Z,94.20
2018-08-20T01:20:28.468Z,94.31
2018-08-20T01:22:57.249Z,94.03
2018-08-20T01:25:25.935Z,94.40
2018-08-20T01:27:54.462Z,94.67
2018-08-20T01:30:22.942Z,93.77
2018-08-20T01:32:52.911Z,93.64
2018-08-20T01:35:25.954Z,93.50
2018-08-20T01:37:54.536Z,94.16
2018-08-20T01:40:23.071Z,94.63
2018-08-20T01:42:52.522Z,94.67
2018-08-20T01:45:21.107Z,94.76
2018-08-20T01:47:49.734Z,94.77
2018-08-20T01:50:18.246Z,94.91
2018-08-20T01:52:46.800Z,94.28
2018-08-20T01:55:15.418Z,94.57
2018-08-20T01:57:44.934Z,94.16
2018-08-20T02:00:13.569Z,94.75
2018-08-20T02:02:42.195Z,94.06
2018-08-20T02:05:11.658Z,93.81
2018-08-20T02:07:40.297Z,93.99
2018-08-20T02:10:08.878Z,94.63
2018-08-20T02:12:37.538Z,94.14
2018-08-20T02:15:06.234Z,94.10
2018-08-20T02:17:34.931Z,93.86
2018-08-20T02:20:03.875Z,94.50
2018-08-20T02:22:32.872Z,94.38
2018-08-20T02:25:01.395Z,94.20
2018-08-20T02:27:29.926Z,94.25
2018-08-20T02:29:58.542Z,94.10
2018-08-20T02:32:27.092Z,93.80
2018-08-20T02:34:55.731Z,93.28
2018-08-20T02:37:31.023Z,93.57
2018-08-20T02:40:00.166Z,92.92
2018-08-20T02:42:28.874Z,92.75
2018-08-20T02:44:58.114Z,92.43
2018-08-20T02:47:26.691Z,92.50
2018-08-20T02:49:55.308Z,92.09
2018-08-20T02:52:23.948Z,92.73
2018-08-20T02:54:52.532Z,92.35
2018-08-20T02:57:21.163Z,92.43
2018-08-20T02:59:49.901Z,93.15
2018-08-20T03:02:18.531Z,92.63
2018-08-20T03:04:47.119Z,92.54
2018-08-20T03:07:15.649Z,92.64
2018-08-20T03:09:44.233Z,92.75
2018-08-20T03:12:12.816Z,92.69
2018-08-20T03:14:41.341Z,92.91
2018-08-20T03:17:09.983Z,92.35
2018-08-20T03:19:38.565Z,92.81
2018-08-20T03:22:07.389Z,92.76
2018-08-20T03:24:36.087Z,92.52
2018-08-20T03:27:04.700Z,92.47
2018-08-20T03:29:33.413Z,92.17
2018-08-20T03:32:02.164Z,92.53
2018-08-20T03:34:30.882Z,93.06
2018-08-20T03:36:59.503Z,92.79
2018-08-20T03:39:28.228Z,92.48
2018-08-20T03:41:56.746Z,92.56
2018-08-20T03:44:25.520Z,92.64
2018-08-20T03:46:54.161Z,92.64
2018-08-20T03:49:22.714Z,92.25
2018-08-20T03:51:51.268Z,91.99
2018-08-20T03:54:19.899Z,92.35
2018-08-20T03:56:48.496Z,92.45
2018-08-20T03:59:31.150Z,91.94
2018-08-20T04:02:02.171Z,92.33
2018-08-20T04:04:30.927Z,92.73
2018-08-20T04:07:01.978Z,92.85
2018-08-20T04:09:31.467Z,92.72
2018-08-20T04:12:00.872Z,92.97
2018-08-20T04:14:29.506Z,92.60
2018-08-20T04:16:58.992Z,92.97
2018-08-20T04:19:29.092Z,92.35
2018-08-20T04:21:58.063Z,92.84
2018-08-20T04:24:26.658Z,92.46
2018-08-20T04:26:55.393Z,92.62
2018-08-20T04:29:23.884Z,92.82
2018-08-20T04:31:52.546Z,92.40
2018-08-20T04:34:21.145Z,92.68
2018-08-20T04:36:50.443Z,92.83
2018-08-20T04:39:19.680Z,92.85
2018-08-20T04:41:48.982Z,92.85
2018-08-20T04:44:17.581Z,92.33
2018-08-20T04:46:46.207Z,92.37
2018-08-20T04:49:14.892Z,92.49
2018-08-20T04:51:43.404Z,92.90
2018-08-20T04:54:11.957Z,92.88
2018-08-20T04:56:40.561Z,92.87
2018-08-20T04:59:09.064Z,92.45
2018-08-20T05:01:38.147Z,92.75
2018-08-20T05:04:07.491Z,92.62
2018-08-20T05:06:36.037Z,92.86
2018-08-20T05:09:06.179Z,93.06
2018-08-20T05:11:34.743Z,92.35
2018-08-20T05:14:03.538Z,92.86
2018-08-20T05:16:32.162Z,92.53
2018-08-20T05:19:01.240Z,92.81
2018-08-20T05:21:29.784Z,92.37
2018-08-20T05:23:58.532Z,92.20
2018-08-20T05:26:27.113Z,92.22
2018-08-20T05:28:55.696Z,92.56
2018-08-20T05:31:24.280Z,92.06
2018-08-20T05:33:53.479Z,92.43
2018-08-20T05:36:22.161Z,92.30
2018-08-20T05:38:50.665Z,91.48
2018-08-20T05:41:19.286Z,91.58
2018-08-20T05:43:47.827Z,91.36
2018-08-20T05:46:16.495Z,91.38
2018-08-20T05:48:45.282Z,91.18
2018-08-20T05:51:13.969Z,90.83
2018-08-20T05:53:42.566Z,90.87
2018-08-20T05:56:11.236Z,90.62
2018-08-20T05:58:39.870Z,90.55
2018-08-20T06:01:08.609Z,90.87
2018-08-20T06:03:37.788Z,90.94
2018-08-20T06:06:07.055Z,90.20
2018-08-20T06:08:35.616Z,89.47
2018-08-20T06:11:04.309Z,89.65
2018-08-20T06:13:33.035Z,88.81
2018-08-20T06:16:01.694Z,88.08
2018-08-20T06:18:30.843Z,88.57
2018-08-20T06:20:59.522Z,88.12
2018-08-20T06:23:28.106Z,87.87
2018-08-20T06:25:56.631Z,88.36
2018-08-20T06:28:26.298Z,87.85
2018-08-20T06:30:55.595Z,87.65
2018-08-20T06:33:24.894Z,87.29
2018-08-20T06:35:53.435Z,87.31
2018-08-20T06:38:22.063Z,87.91
2018-08-20T06:40:50.747Z,87.25
2018-08-20T06:43:19.738Z,87.72
2018-08-20T06:45:48.321Z,88.32
2018-08-20T06:48:16.835Z,88.86
2018-08-20T06:50:45.401Z,89.11
2018-08-20T06:53:14.013Z,89.16
2018-08-20T06:55:42.653Z,89.41
2018-08-20T06:58:11.339Z,89.75
2018-08-20T07:00:39.933Z,89.73
2018-08-20T07:03:08.509Z,90.07
2018-08-20T07:05:37.152Z,89.43
2018-08-20T07:08:05.669Z,88.39
2018-08-20T07:10:42.332Z,89.37
2018-08-20T07:13:23.771Z,89.20
2018-08-20T07:15:52.410Z,89.78
2018-08-20T07:18:21.042Z,89.02
2018-08-20T07:20:49.677Z,88.43
2018-08-20T07:23:18.543Z,88.19
2018-08-20T07:25:47.458Z,87.88
2018-08-20T07:28:16.246Z,88.17
2018-08-20T07:30:44.967Z,87.57
2018-08-20T07:33:13.579Z,87.83
2018-08-20T07:35:42.115Z,87.92
2018-08-20T07:38:11.011Z,87.33
2018-08-20T07:40:39.674Z,87.58
2018-08-20T07:43:08.358Z,86.69
2018-08-20T07:45:37.042Z,87.26
2018-08-20T07:48:05.815Z,87.13
2018-08-20T07:50:34.619Z,88.28
2018-08-20T07:53:03.816Z,87.15
2018-08-20T07:55:32.686Z,86.23
2018-08-20T07:58:01.698Z,86.42
2018-08-20T08:00:30.214Z,86.12
2018-08-20T08:02:58.760Z,86.93
2018-08-20T08:05:28.374Z,87.37
2018-08-20T08:07:57.057Z,86.87
2018-08-20T08:10:25.659Z,87.99
2018-08-20T08:12:54.483Z,87.00
2018-08-20T08:15:23.211Z,86.80
2018-08-20T08:17:53.187Z,86.92
2018-08-20T08:20:23.449Z,86.10
2018-08-20T08:22:52.205Z,86.56
2018-08-20T08:25:20.924Z,86.25
2018-08-20T08:27:49.663Z,86.19
2018-08-20T08:30:19.378Z,85.17
2018-08-20T08:32:48.265Z,85.65
2018-08-20T08:35:17.097Z,84.45
2018-08-20T08:37:45.837Z,86.17
2018-08-20T08:40:17.076Z,84.81
2018-08-20T08:42:45.713Z,84.31
2018-08-20T08:45:16.716Z,82.19
2018-08-20T08:47:46.030Z,82.89
2018-08-20T08:50:16.071Z,83.34
2018-08-20T08:52:45.107Z,82.53
2018-08-20T08:55:13.849Z,82.29
2018-08-20T08:57:43.867Z,82.53
2018-08-20T09:00:16.856Z,80.83
2018-08-20T09:02:45.911Z,82.05
2018-08-20T09:05:14.671Z,80.79
2018-08-20T09:07:43.734Z,80.05
2018-08-20T09:10:13.350Z,80.04
2018-08-20T09:12:42.020Z,79.04
2018-08-20T09:15:13.236Z,77.55
2018-08-20T09:17:42.161Z,77.22
2018-08-20T09:20:13.311Z,76.60
2018-08-20T09:22:41.984Z,76.70
2018-08-20T09:25:12.206Z,76.82
2018-08-20T09:27:41.931Z,75.62
2018-08-20T09:30:17.576Z,74.97
2018-08-20T09:32:47.496Z,73.95
2018-08-20T09:35:16.575Z,74.91
2018-08-20T09:37:45.201Z,73.65
2018-08-20T09:40:14.163Z,75.72
2018-08-20T09:42:44.062Z,73.48
2018-08-20T09:45:13.011Z,74.52
2018-08-20T09:47:43.230Z,73.53
2018-08-20T09:50:15.196Z,73.70
2018-08-20T09:52:44.482Z,74.31
2018-08-20T09:55:13.622Z,73.14
2018-08-20T09:57:42.318Z,72.77
2018-08-20T10:00:20.367Z,73.17
2018-08-20T10:02:49.935Z,72.83
2018-08-20T10:05:19.229Z,72.94
2018-08-20T10:07:48.626Z,70.78
2018-08-20T10:10:18.033Z,71.37
2018-08-20T10:12:47.744Z,71.86
2018-08-20T10:15:16.429Z,68.95
2018-08-20T10:17:45.509Z,70.10
2018-08-20T10:20:15.751Z,70.94
2018-08-20T10:22:44.638Z,70.12
2018-08-20T10:25:13.320Z,67.51
2018-08-20T10:27:41.887Z,66.39
2018-08-20T10:30:11.741Z,65.41
2018-08-20T10:32:40.400Z,65.52
2018-08-20T10:35:09.140Z,66.51
2018-08-20T10:37:37.775Z,62.51
2018-08-20T10:40:07.732Z,63.08
2018-08-20T10:42:36.719Z,62.78
2018-08-20T10:45:12.627Z,64.99
2018-08-20T10:47:41.319Z,62.60
2018-08-20T10:50:14.210Z,63.50
2018-08-20T10:52:44.375Z,64.00
2018-08-20T10:55:13.048Z,63.53
2018-08-20T10:57:42.002Z,59.79
2018-08-20T11:00:11.591Z,59.29
2018-08-20T11:02:40.963Z,60.37
2018-08-20T11:05:11.897Z,63.50
2018-08-20T11:07:41.143Z,57.53
2018-08-20T11:10:10.203Z,60.97
2018-08-20T11:12:39.024Z,60.85
2018-08-20T11:15:09.140Z,60.08
2018-08-20T11:17:38.757Z,62.05
2018-08-20T11:20:10.566Z,59.93
2018-08-20T11:22:39.379Z,63.46
2018-08-20T11:25:09.050Z,62.14
2018-08-20T11:27:38.175Z,63.32
2018-08-20T11:30:07.942Z,58.04
2018-08-20T11:32:36.630Z,57.58
2018-08-20T11:35:05.531Z,57.01
2018-08-20T11:37:34.180Z,58.34
2018-08-20T11:40:03.038Z,57.83
2018-08-20T11:42:32.322Z,55.31
2018-08-20T11:45:01.568Z,55.57
2018-08-20T11:47:30.245Z,56.85
2018-08-20T11:49:59.443Z,55.61
2018-08-20T11:52:28.308Z,54.47
2018-08-20T11:54:56.916Z,53.77
2018-08-20T11:57:25.438Z,55.34
2018-08-20T11:59:54.169Z,57.32
2018-08-20T12:02:23.732Z,55.03
2018-08-20T12:04:52.534Z,55.34
2018-08-20T12:07:21.120Z,57.65
2018-08-20T12:09:49.891Z,55.64
2018-08-20T12:12:18.941Z,57.19
2018-08-20T12:14:47.500Z,56.96
2018-08-20T12:17:16.988Z,56.68
2018-08-20T12:19:45.539Z,57.63
2018-08-20T12:22:14.134Z,57.09
2018-08-20T12:24:42.674Z,54.86
2018-08-20T12:27:11.360Z,56.52
2018-08-20T12:29:40.015Z,57.61
2018-08-20T12:32:08.881Z,57.58
2018-08-20T12:34:37.431Z,56.83
2018-08-20T12:37:06.067Z,54.92
2018-08-20T12:39:34.685Z,56.34
2018-08-20T12:42:03.735Z,55.16
2018-08-20T12:44:32.361Z,54.51
2018-08-20T12:47:00.851Z,55.72
2018-08-20T12:49:29.939Z,56.10
2018-08-20T12:51:58.574Z,56.14
2018-08-20T12:54:27.381Z,56.91
2018-08-20T12:56:57.529Z,54.67
2018-08-20T12:59:26.111Z,55.04
2018-08-20T13:01:56.028Z,56.52
2018-08-20T13:04:24.610Z,54.99
2018-08-20T13:06:54.116Z,54.28
2018-08-20T13:09:22.698Z,55.23
2018-08-20T13:11:51.385Z,57.19
2018-08-20T13:14:20.070Z,54.05
2018-08-20T13:16:48.612Z,56.32
2018-08-20T13:19:18.112Z,55.79
2018-08-20T13:21:46.741Z,55.49
2018-08-20T13:24:15.421Z,54.86
2018-08-20T13:26:43.934Z,53.72
2018-08-20T13:29:12.589Z,54.34
2018-08-20T13:31:41.667Z,54.91
2018-08-20T13:34:10.275Z,55.39
2018-08-20T13:36:39.057Z,55.07
2018-08-20T13:39:09.387Z,53.76
2018-08-20T13:41:38.618Z,54.53
2018-08-20T13:44:07.578Z,53.85
2018-08-20T13:46:36.665Z,54.65
2018-08-20T13:49:05.558Z,53.62
2018-08-20T13:51:34.170Z,54.90
2018-08-20T13:54:02.822Z,53.88
2018-08-20T13:56:31.423Z,55.42
2018-08-20T13:59:00.088Z,56.39
2018-08-20T14:01:28.774Z,55.77
2018-08-20T14:03:58.535Z,55.27
2018-08-20T14:06:27.787Z,56.45
2018-08-20T14:08:56.367Z,52.64
2018-08-20T14:11:24.990Z,52.55
2018-08-20T14:13:53.551Z,53.68
2018-08-20T14:16:22.183Z,55.45
2018-08-20T14:18:50.875Z,54.33
2018-08-20T14:21:19.486Z,52.71
2018-08-20T14:23:49.147Z,51.75
2018-08-20T14:26:18.392Z,51.38
2018-08-20T14:28:46.961Z,52.90
2018-08-20T14:31:15.665Z,50.61
2018-08-20T14:33:44.241Z,51.72
2018-08-20T14:36:12.927Z,52.07
2018-08-20T14:38:41.510Z,53.29
2018-08-20T14:41:10.113Z,52.23
2018-08-20T14:43:38.766Z,53.82
2018-08-20T14:46:12.685Z,53.49
2018-08-20T14:48:41.250Z,52.23
2018-08-20T14:51:09.903Z,51.22
2018-08-20T14:53:38.630Z,52.69
2018-08-20T14:56:07.772Z,52.98
2018-08-20T14:58:36.419Z,53.00
2018-08-20T15:01:05.071Z,52.62
2018-08-20T15:03:33.688Z,53.54
2018-08-20T15:06:02.508Z,51.61
2018-08-20T15:08:31.594Z,53.18
2018-08-20T15:11:00.175Z,52.07
2018-08-20T15:13:29.711Z,51.23
2018-08-20T15:15:58.446Z,51.23
2018-08-20T15:18:27.031Z,52.25
2018-08-20T15:20:55.531Z,50.93
2018-08-20T15:23:24.148Z,51.45
2018-08-20T15:25:52.695Z,53.68
2018-08-20T15:28:21.287Z,51.04
2018-08-20T15:30:49.840Z,49.72
2018-08-20T15:33:18.423Z,49.71
2018-08-20T15:35:47.006Z,50.18
2018-08-20T15:38:15.644Z,50.08
2018-08-20T15:40:44.497Z,50.45
2018-08-20T15:43:13.096Z,52.12
2018-08-20T15:45:43.290Z,51.87
2018-08-20T15:48:11.974Z,51.44
2018-08-20T15:50:40.654Z,52.92
2018-08-20T15:53:09.321Z,53.15
2018-08-20T15:55:38.034Z,53.04
2018-08-20T15:58:06.607Z,51.81
2018-08-20T16:00:35.219Z,52.84
2018-08-20T16:03:03.836Z,52.36
2018-08-20T16:05:33.126Z,52.03
2018-08-20T16:08:01.759Z,52.96
2018-08-20T16:10:30.401Z,50.99
2018-08-20T16:12:59.550Z,52.50
2018-08-20T16:15:28.122Z,54.04
2018-08-20T16:17:56.705Z,52.84
2018-08-20T16:20:26.105Z,53.67
2018-08-20T16:22:54.681Z,52.86
2018-08-20T16:25:23.947Z,54.38
2018-08-20T16:27:52.675Z,53.72
2018-08-20T16:30:21.215Z,54.37
2018-08-20T16:32:49.764Z,53.53
2018-08-20T16:35:18.368Z,54.38
2018-08-20T16:37:47.005Z,53.51
2018-08-20T16:40:15.694Z,55.06
2018-08-20T16:42:44.376Z,53.93
2018-08-20T16:45:13.737Z,54.59
2018-08-20T16:47:42.292Z,54.49
2018-08-20T16:50:12.472Z,53.28
2018-08-20T16:52:41.470Z,54.29
2018-08-20T16:55:10.769Z,54.64
2018-08-20T16:57:39.456Z,54.12
2018-08-20T17:00:10.355Z,53.17
2018-08-20T17:02:40.671Z,53.75
2018-08-20T17:05:10.890Z,55.12
2018-08-20T17:07:39.591Z,53.40
2018-08-20T17:10:09.931Z,53.53
2018-08-20T17:12:38.633Z,55.05
2018-08-20T17:15:12.133Z,56.07
2018-08-20T17:17:41.024Z,56.10
2018-08-20T17:20:11.227Z,56.72
2018-08-20T17:22:40.259Z,57.42
2018-08-20T17:25:09.402Z,58.18
2018-08-20T17:27:38.014Z,58.08
2018-08-20T17:30:08.548Z,58.26
2018-08-20T17:32:37.297Z,59.20
2018-08-20T17:35:08.371Z,58.51
2018-08-20T17:37:37.016Z,58.80
2018-08-20T17:40:09.223Z,57.97
2018-08-20T17:42:37.909Z,58.61
2018-08-20T17:45:08.135Z,58.11
2018-08-20T17:47:39.131Z,57.35
2018-08-20T17:50:17.495Z,57.81
2018-08-20T17:52:46.169Z,58.61
2018-08-20T17:55:14.889Z,58.52
2018-08-20T17:57:43.437Z,57.05
2018-08-20T18:00:30.787Z,57.74
2018-08-20T18:02:59.802Z,58.04
2018-08-20T18:05:28.366Z,59.21
2018-08-20T18:07:57.103Z,58.80
2018-08-20T18:10:25.767Z,59.30
2018-08-20T18:12:54.495Z,59.17
2018-08-20T18:15:23.201Z,59.88
2018-08-20T18:17:51.798Z,60.24
2018-08-20T18:20:20.547Z,60.67
2018-08-20T18:22:49.129Z,61.24
2018-08-20T18:25:17.712Z,61.08
2018-08-20T18:27:46.348Z,62.16
2018-08-20T18:30:17.385Z,62.95
2018-08-20T18:32:46.794Z,62.68
2018-08-20T18:35:22.838Z,63.62
2018-08-20T18:37:52.284Z,64.29
2018-08-20T18:40:20.858Z,65.46
2018-08-20T18:42:49.407Z,65.07
2018-08-20T18:45:18.027Z,66.10
2018-08-20T18:47:46.595Z,66.92
2018-08-20T18:50:15.215Z,67.50
2018-08-20T18:52:43.797Z,68.47
2018-08-20T18:55:12.523Z,68.05
2018-08-20T18:57:41.169Z,69.25
2018-08-20T19:00:13.366Z,69.07
2018-08-20T19:02:49.732Z,69.10
2018-08-20T19:05:18.999Z,70.07
2018-08-20T19:07:48.065Z,70.81
2018-08-20T19:10:20.967Z,71.03
2018-08-20T19:12:49.766Z,70.84
2018-08-20T19:15:30.228Z,72.46
2018-08-20T19:17:59.675Z,71.64
2018-08-20T19:20:28.221Z,71.62
2018-08-20T19:22:56.857Z,72.53
2018-08-20T19:25:25.404Z,72.60
2018-08-20T19:27:54.065Z,72.91
2018-08-20T19:30:24.389Z,72.24
2018-08-20T19:32:53.037Z,72.79
2018-08-20T19:35:21.594Z,72.74
2018-08-20T19:37:50.341Z,73.81
2018-08-20T19:40:18.973Z,73.23
2018-08-20T19:42:47.814Z,74.30
2018-08-20T19:45:16.499Z,74.02
2018-08-20T19:47:46.106Z,74.42
2018-08-20T19:50:14.691Z,74.90
2018-08-20T19:52:43.519Z,75.15
2018-08-20T19:55:12.847Z,74.97
2018-08-20T19:57:41.413Z,75.11
2018-08-20T20:00:11.842Z,75.41
2018-08-20T20:02:42.412Z,75.44
2018-08-20T20:05:13.763Z,75.81
2018-08-20T20:07:57.298Z,75.63
2018-08-20T20:10:25.881Z,76.02
2018-08-20T20:12:56.206Z,76.36
2018-08-20T20:15:25.709Z,76.43
2018-08-20T20:17:55.899Z,76.51
2018-08-20T20:20:24.670Z,77.04
2018-08-20T20:22:53.404Z,77.35
2018-08-20T20:25:21.987Z,77.46
2018-08-20T20:27:50.535Z,78.64
2018-08-20T20:30:19.258Z,78.46
2018-08-20T20:32:47.899Z,78.07
2018-08-20T20:35:16.466Z,77.95
2018-08-20T20:37:45.047Z,79.59
2018-08-20T20:40:13.930Z,78.99
2018-08-20T20:42:42.854Z,78.65
2018-08-20T20:45:11.672Z,79.61
2018-08-20T20:47:40.358Z,79.89
2018-08-20T20:50:08.911Z,80.38
2018-08-20T20:52:37.599Z,79.72
2018-08-20T20:55:06.322Z,79.60
2018-08-20T20:57:34.975Z,80.19
2018-08-20T21:00:03.539Z,79.88
2018-08-20T21:02:32.129Z,79.66
2018-08-20T21:05:08.938Z,80.14
2018-08-20T21:07:37.887Z,80.05
2018-08-20T21:10:07.335Z,82.41
2018-08-20T21:12:35.963Z,81.44
2018-08-20T21:15:05.507Z,80.75
2018-08-20T21:17:35.396Z,80.61
2018-08-20T21:20:04.023Z,80.21
2018-08-20T21:22:35.477Z,81.03
2018-08-20T21:25:05.454Z,81.13
2018-08-20T21:27:34.170Z,80.87
2018-08-20T21:30:02.868Z,81.15
2018-08-20T21:32:31.542Z,82.72
2018-08-20T21:35:00.226Z,81.16
2018-08-20T21:37:28.852Z,82.37
2018-08-20T21:39:57.450Z,83.06
2018-08-20T21:42:31.198Z,81.76
2018-08-20T21:44:59.948Z,81.53
2018-08-20T21:47:30.259Z,81.03
2018-08-20T21:49:58.996Z,82.20
2018-08-20T21:52:27.530Z,83.35
2018-08-20T21:54:56.158Z,83.40
2018-08-20T21:57:24.745Z,83.80
2018-08-20T22:00:04.154Z,83.17
2018-08-20T22:02:33.874Z,82.55
2018-08-20T22:05:02.618Z,82.31
2018-08-20T22:07:31.200Z,82.45
2018-08-20T22:09:59.814Z,83.39
2018-08-20T22:12:28.427Z,82.81
2018-08-20T22:14:56.991Z,82.98
2018-08-20T22:17:30.303Z,83.47
2018-08-20T22:19:59.454Z,84.32
2018-08-20T22:22:28.700Z,84.11
2018-08-20T22:25:00.866Z,84.10
2018-08-20T22:27:30.618Z,83.71
2018-08-20T22:30:01.840Z,84.20
2018-08-20T22:32:30.994Z,84.63
2018-08-20T22:35:00.065Z,85.00
2018-08-20T22:37:28.630Z,84.14
2018-08-20T22:40:02.397Z,84.03
2018-08-20T22:42:42.683Z,84.33
2018-08-20T22:45:13.722Z,83.48
2018-08-20T22:47:42.425Z,83.06
2018-08-20T22:50:11.017Z,84.85
2018-08-20T22:52:43.283Z,84.02
2018-08-20T22:55:12.788Z,84.45
2018-08-20T22:57:48.897Z,85.38
2018-08-20T23:00:22.730Z,85.68
2018-08-20T23:02:52.555Z,85.66
2018-08-20T23:05:21.198Z,84.63
2018-08-20T23:07:50.009Z,84.64
2018-08-20T23:10:18.775Z,84.52
2018-08-20T23:12:47.958Z,84.36
2018-08-20T23:15:16.579Z,84.87
2018-08-20T23:17:45.134Z,85.63
2018-08-20T23:20:22.674Z,85.79
2018-08-20T23:22:51.261Z,85.01
2018-08-20T23:25:19.840Z,86.79
2018-08-20T23:27:50.119Z,85.48
2018-08-20T23:30:19.662Z,85.40
2018-08-20T23:32:48.607Z,84.80
2018-08-20T23:35:17.196Z,84.58
2018-08-20T23:37:46.291Z,84.60
2018-08-20T23:40:14.919Z,84.56
2018-08-20T23:42:44.071Z,84.63
2018-08-20T23:45:12.907Z,84.63
2018-08-20T23:47:41.487Z,84.94
2018-08-20T23:50:10.055Z,85.60
2018-08-20T23:52:38.608Z,85.90
2018-08-20T23:55:07.295Z,85.09
2018-08-20T23:57:35.978Z,84.84
